sensor_id;sensor_type;location;lat;lon;timestamp;pressure;altitude;pressure_sealevel;temperature;humidity
706;BME280;21234;48.690;9.016;2023-04-19T00:00:16;96610.91;;;8.57;98.05
706;BME280;21234;48.690;9.016;2023-04-19T00:02:44;96615.81;;;8.49;97.87
706;BME280;21234;48.690;9.016;2023-04-19T00:05:13;96617.63;;;8.55;98.28
706;BME280;21234;48.690;9.016;2023-04-19T00:07:40;96613.47;;;8.52;98.71
706;BME280;21234;48.690;9.016;2023-04-19T00:10:08;96611.69;;;8.46;99.29
706;BME280;21234;48.690;9.016;2023-04-19T00:12:35;96616.38;;;8.39;98.77
706;BME280;21234;48.690;9.016;2023-04-19T00:15:02;96607.06;;;8.35;99.12
706;BME280;21234;48.690;9.016;2023-04-19T00:17:28;96611.78;;;8.39;99.32
706;BME280;21234;48.690;9.016;2023-04-19T00:19:56;96614.72;;;8.38;99.32
706;BME280;21234;48.690;9.016;2023-04-19T00:22:23;96610.81;;;8.34;99.10
706;BME280;21234;48.690;9.016;2023-04-19T00:24:50;96611.88;;;8.33;99.25
706;BME280;21234;48.690;9.016;2023-04-19T00:27:17;96600.34;;;8.37;99.85
706;BME280;21234;48.690;9.016;2023-04-19T00:29:44;96600.13;;;8.39;100.00
706;BME280;21234;48.690;9.016;2023-04-19T00:32:10;96603.28;;;8.36;99.56
706;BME280;21234;48.690;9.016;2023-04-19T00:34:37;96605.66;;;8.26;99.59
706;BME280;21234;48.690;9.016;2023-04-19T00:37:07;96610.84;;;8.27;100.00
706;BME280;21234;48.690;9.016;2023-04-19T00:39:34;96597.31;;;8.27;100.00
706;BME280;21234;48.690;9.016;2023-04-19T00:42:00;96599.19;;;8.27;100.00
706;BME280;21234;48.690;9.016;2023-04-19T00:44:27;96596.44;;;8.33;99.85
706;BME280;21234;48.690;9.016;2023-04-19T00:46:55;96598.47;;;8.38;100.00
706;BME280;21234;48.690;9.016;2023-04-19T00:49:22;96591.78;;;8.40;100.00
706;BME280;21234;48.690;9.016;2023-04-19T00:51:50;96595.09;;;8.43;100.00
706;BME280;21234;48.690;9.016;2023-04-19T00:54:18;96592.59;;;8.41;100.00
706;BME280;21234;48.690;9.016;2023-04-19T00:56:45;96589.06;;;8.40;99.44
706;BME280;21234;48.690;9.016;2023-04-19T00:59:13;96582.66;;;8.35;99.85
706;BME280;21234;48.690;9.016;2023-04-19T01:01:40;96588.22;;;8.40;99.82
706;BME280;21234;48.690;9.016;2023-04-19T01:04:07;96588.22;;;8.40;99.43
706;BME280;21234;48.690;9.016;2023-04-19T01:06:35;96591.22;;;8.32;99.64
706;BME280;21234;48.690;9.016;2023-04-19T01:09:02;96582.56;;;8.23;100.00
706;BME280;21234;48.690;9.016;2023-04-19T01:11:31;96589.13;;;8.16;100.00
706;BME280;21234;48.690;9.016;2023-04-19T01:13:58;96584.22;;;8.24;100.00
706;BME280;21234;48.690;9.016;2023-04-19T01:16:25;96577.59;;;8.20;100.00
706;BME280;21234;48.690;9.016;2023-04-19T01:18:51;96580.53;;;8.19;100.00
706;BME280;21234;48.690;9.016;2023-04-19T01:21:18;96577.84;;;8.19;100.00
706;BME280;21234;48.690;9.016;2023-04-19T01:23:48;96577.75;;;8.25;100.00
706;BME280;21234;48.690;9.016;2023-04-19T01:26:14;96575.28;;;8.24;100.00
706;BME280;21234;48.690;9.016;2023-04-19T01:28:41;96581.13;;;8.21;100.00
706;BME280;21234;48.690;9.016;2023-04-19T01:31:08;96571.75;;;8.23;100.00
706;BME280;21234;48.690;9.016;2023-04-19T01:33:35;96569.09;;;8.17;100.00
706;BME280;21234;48.690;9.016;2023-04-19T01:36:01;96564.22;;;8.25;100.00
706;BME280;21234;48.690;9.016;2023-04-19T01:38:28;96557.97;;;8.25;100.00
706;BME280;21234;48.690;9.016;2023-04-19T01:40:57;96563.75;;;8.28;100.00
706;BME280;21234;48.690;9.016;2023-04-19T01:43:24;96554.44;;;8.24;100.00
706;BME280;21234;48.690;9.016;2023-04-19T01:45:51;96555.25;;;8.25;100.00
706;BME280;21234;48.690;9.016;2023-04-19T01:48:17;96552.78;;;8.23;100.00
706;BME280;21234;48.690;9.016;2023-04-19T01:50:44;96557.81;;;8.20;100.00
706;BME280;21234;48.690;9.016;2023-04-19T01:53:11;96555.78;;;8.15;100.00
706;BME280;21234;48.690;9.016;2023-04-19T01:55:38;96549.31;;;8.16;100.00
706;BME280;21234;48.690;9.016;2023-04-19T01:58:06;96560.75;;;8.18;100.00
706;BME280;21234;48.690;9.016;2023-04-19T02:00:32;96544.44;;;8.25;100.00
706;BME280;21234;48.690;9.016;2023-04-19T02:02:59;96550.16;;;8.17;100.00
706;BME280;21234;48.690;9.016;2023-04-19T02:05:26;96550.28;;;8.22;100.00
706;BME280;21234;48.690;9.016;2023-04-19T02:07:52;96544.88;;;8.22;100.00
706;BME280;21234;48.690;9.016;2023-04-19T02:10:19;96540.16;;;8.17;100.00
706;BME280;21234;48.690;9.016;2023-04-19T02:12:46;96534.50;;;8.19;100.00
706;BME280;21234;48.690;9.016;2023-04-19T02:15:14;96542.16;;;8.22;100.00
706;BME280;21234;48.690;9.016;2023-04-19T02:17:41;96531.94;;;8.24;100.00
706;BME280;21234;48.690;9.016;2023-04-19T02:20:08;96524.94;;;8.16;100.00
706;BME280;21234;48.690;9.016;2023-04-19T02:22:35;96534.88;;;8.22;100.00
706;BME280;21234;48.690;9.016;2023-04-19T02:25:01;96526.16;;;8.20;100.00
706;BME280;21234;48.690;9.016;2023-04-19T02:27:29;96525.00;;;8.28;99.90
706;BME280;21234;48.690;9.016;2023-04-19T02:29:55;96526.53;;;8.24;100.00
706;BME280;21234;48.690;9.016;2023-04-19T02:32:23;96530.59;;;8.15;100.00
706;BME280;21234;48.690;9.016;2023-04-19T02:34:51;96522.63;;;8.20;100.00
706;BME280;21234;48.690;9.016;2023-04-19T02:37:17;96514.88;;;8.23;100.00
706;BME280;21234;48.690;9.016;2023-04-19T02:39:44;96518.16;;;8.25;100.00
706;BME280;21234;48.690;9.016;2023-04-19T02:42:11;96513.59;;;8.26;100.00
706;BME280;21234;48.690;9.016;2023-04-19T02:44:37;96514.03;;;8.23;100.00
706;BME280;21234;48.690;9.016;2023-04-19T02:47:04;96510.13;;;8.19;100.00
706;BME280;21234;48.690;9.016;2023-04-19T02:49:33;96504.25;;;8.22;100.00
706;BME280;21234;48.690;9.016;2023-04-19T02:52:02;96508.38;;;8.24;100.00
706;BME280;21234;48.690;9.016;2023-04-19T02:54:29;96504.56;;;8.14;100.00
706;BME280;21234;48.690;9.016;2023-04-19T02:56:57;96503.25;;;8.04;100.00
706;BME280;21234;48.690;9.016;2023-04-19T02:59:24;96502.44;;;8.04;100.00
706;BME280;21234;48.690;9.016;2023-04-19T03:01:50;96509.56;;;7.98;100.00
706;BME280;21234;48.690;9.016;2023-04-19T03:04:17;96507.84;;;8.04;100.00
706;BME280;21234;48.690;9.016;2023-04-19T03:06:45;96511.22;;;7.99;100.00
706;BME280;21234;48.690;9.016;2023-04-19T03:09:12;96502.66;;;8.02;100.00
706;BME280;21234;48.690;9.016;2023-04-19T03:11:39;96502.06;;;8.00;100.00
706;BME280;21234;48.690;9.016;2023-04-19T03:14:05;96507.09;;;7.97;100.00
706;BME280;21234;48.690;9.016;2023-04-19T03:16:32;96502.66;;;8.02;100.00
706;BME280;21234;48.690;9.016;2023-04-19T03:18:59;96500.56;;;8.04;100.00
706;BME280;21234;48.690;9.016;2023-04-19T03:21:25;96500.25;;;7.94;100.00
706;BME280;21234;48.690;9.016;2023-04-19T03:23:54;96499.88;;;7.91;100.00
706;BME280;21234;48.690;9.016;2023-04-19T03:26:21;96504.31;;;7.85;100.00
706;BME280;21234;48.690;9.016;2023-04-19T03:28:48;96498.00;;;7.91;100.00
706;BME280;21234;48.690;9.016;2023-04-19T03:31:15;96506.31;;;7.78;100.00
706;BME280;21234;48.690;9.016;2023-04-19T03:33:42;96504.44;;;7.79;100.00
706;BME280;21234;48.690;9.016;2023-04-19T03:36:08;96501.47;;;7.80;100.00
706;BME280;21234;48.690;9.016;2023-04-19T03:38:35;96499.00;;;7.79;100.00
706;BME280;21234;48.690;9.016;2023-04-19T03:41:04;96498.53;;;7.82;100.00
706;BME280;21234;48.690;9.016;2023-04-19T03:43:31;96499.72;;;7.86;100.00
706;BME280;21234;48.690;9.016;2023-04-19T03:45:57;96491.94;;;7.78;100.00
706;BME280;21234;48.690;9.016;2023-04-19T03:48:24;96491.94;;;7.78;100.00
706;BME280;21234;48.690;9.016;2023-04-19T03:50:52;96489.00;;;7.79;100.00
706;BME280;21234;48.690;9.016;2023-04-19T03:53:18;96483.81;;;7.78;100.00
706;BME280;21234;48.690;9.016;2023-04-19T03:55:45;96486.66;;;7.83;100.00
706;BME280;21234;48.690;9.016;2023-04-19T03:58:13;96480.06;;;7.79;100.00
706;BME280;21234;48.690;9.016;2023-04-19T04:00:40;96481.94;;;7.78;100.00
706;BME280;21234;48.690;9.016;2023-04-19T04:03:07;96484.59;;;7.66;100.00
706;BME280;21234;48.690;9.016;2023-04-19T04:05:34;96481.28;;;7.64;100.00
706;BME280;21234;48.690;9.016;2023-04-19T04:08:01;96486.84;;;7.69;100.00
706;BME280;21234;48.690;9.016;2023-04-19T04:10:28;96475.09;;;7.75;100.00
706;BME280;21234;48.690;9.016;2023-04-19T04:12:54;96488.75;;;7.81;100.00
706;BME280;21234;48.690;9.016;2023-04-19T04:15:23;96477.44;;;7.72;100.00
706;BME280;21234;48.690;9.016;2023-04-19T04:17:49;96481.72;;;7.80;100.00
706;BME280;21234;48.690;9.016;2023-04-19T04:20:16;96488.25;;;7.72;100.00
706;BME280;21234;48.690;9.016;2023-04-19T04:22:43;96489.75;;;7.68;100.00
706;BME280;21234;48.690;9.016;2023-04-19T04:25:11;96492.91;;;7.65;100.00
706;BME280;21234;48.690;9.016;2023-04-19T04:27:40;96486.91;;;7.63;100.00
706;BME280;21234;48.690;9.016;2023-04-19T04:30:08;96489.84;;;7.61;100.00
706;BME280;21234;48.690;9.016;2023-04-19T04:32:37;96486.47;;;7.66;100.00
706;BME280;21234;48.690;9.016;2023-04-19T04:35:06;96489.38;;;7.64;100.00
706;BME280;21234;48.690;9.016;2023-04-19T04:37:34;96488.56;;;7.64;100.00
706;BME280;21234;48.690;9.016;2023-04-19T04:40:01;96481.19;;;7.71;100.00
706;BME280;21234;48.690;9.016;2023-04-19T04:42:29;96488.50;;;7.70;100.00
706;BME280;21234;48.690;9.016;2023-04-19T04:44:57;96487.44;;;7.71;100.00
706;BME280;21234;48.690;9.016;2023-04-19T04:47:29;96485.19;;;7.68;100.00
706;BME280;21234;48.690;9.016;2023-04-19T04:49:58;96479.91;;;7.73;100.00
706;BME280;21234;48.690;9.016;2023-04-19T04:52:24;96493.06;;;7.70;100.00
706;BME280;21234;48.690;9.016;2023-04-19T04:54:51;96490.22;;;7.65;100.00
706;BME280;21234;48.690;9.016;2023-04-19T04:57:18;96487.81;;;7.57;100.00
706;BME280;21234;48.690;9.016;2023-04-19T04:59:44;96487.66;;;7.52;100.00
706;BME280;21234;48.690;9.016;2023-04-19T05:02:12;96491.84;;;7.48;100.00
706;BME280;21234;48.690;9.016;2023-04-19T05:04:39;96487.97;;;7.44;100.00
706;BME280;21234;48.690;9.016;2023-04-19T05:07:07;96487.16;;;7.43;100.00
706;BME280;21234;48.690;9.016;2023-04-19T05:09:33;96485.13;;;7.38;100.00
706;BME280;21234;48.690;9.016;2023-04-19T05:12:00;96484.00;;;7.46;100.00
706;BME280;21234;48.690;9.016;2023-04-19T05:14:27;96489.16;;;7.48;100.00
706;BME280;21234;48.690;9.016;2023-04-19T05:16:53;96493.50;;;7.49;100.00
706;BME280;21234;48.690;9.016;2023-04-19T05:19:20;96496.53;;;7.59;100.00
706;BME280;21234;48.690;9.016;2023-04-19T05:21:47;96499.44;;;7.57;100.00
706;BME280;21234;48.690;9.016;2023-04-19T05:24:15;96496.22;;;7.67;100.00
706;BME280;21234;48.690;9.016;2023-04-19T05:26:42;96501.25;;;7.63;100.00
706;BME280;21234;48.690;9.016;2023-04-19T05:29:08;96498.78;;;7.62;100.00
706;BME280;21234;48.690;9.016;2023-04-19T05:31:35;96506.59;;;7.70;100.00
706;BME280;21234;48.690;9.016;2023-04-19T05:34:01;96504.06;;;7.75;100.00
706;BME280;21234;48.690;9.016;2023-04-19T05:36:28;96504.50;;;7.72;100.00
706;BME280;21234;48.690;9.016;2023-04-19T05:38:56;96503.81;;;7.77;100.00
706;BME280;21234;48.690;9.016;2023-04-19T05:41:24;96498.72;;;7.68;100.00
706;BME280;21234;48.690;9.016;2023-04-19T05:43:51;96506.91;;;7.62;100.00
706;BME280;21234;48.690;9.016;2023-04-19T05:46:17;96505.84;;;7.63;100.00
706;BME280;21234;48.690;9.016;2023-04-19T05:48:44;96504.72;;;7.70;100.00
706;BME280;21234;48.690;9.016;2023-04-19T05:51:12;96509.25;;;7.77;100.00
706;BME280;21234;48.690;9.016;2023-04-19T05:53:41;96508.25;;;7.71;100.00
706;BME280;21234;48.690;9.016;2023-04-19T05:56:08;96505.19;;;7.67;100.00
706;BME280;21234;48.690;9.016;2023-04-19T05:58:36;96516.81;;;7.68;100.00
706;BME280;21234;48.690;9.016;2023-04-19T06:01:03;96511.88;;;7.65;100.00
706;BME280;21234;48.690;9.016;2023-04-19T06:03:30;96511.78;;;7.71;100.00
706;BME280;21234;48.690;9.016;2023-04-19T06:05:57;96513.94;;;7.81;100.00
706;BME280;21234;48.690;9.016;2023-04-19T06:08:24;96518.84;;;7.72;100.00
706;BME280;21234;48.690;9.016;2023-04-19T06:10:51;96513.91;;;7.69;100.00
706;BME280;21234;48.690;9.016;2023-04-19T06:13:19;96514.09;;;7.86;100.00
706;BME280;21234;48.690;9.016;2023-04-19T06:15:47;96515.22;;;7.97;100.00
706;BME280;21234;48.690;9.016;2023-04-19T06:18:14;96515.44;;;7.95;100.00
706;BME280;21234;48.690;9.016;2023-04-19T06:20:40;96515.59;;;8.00;100.00
706;BME280;21234;48.690;9.016;2023-04-19T06:23:07;96521.09;;;7.94;100.00
706;BME280;21234;48.690;9.016;2023-04-19T06:25:34;96517.69;;;7.98;100.00
706;BME280;21234;48.690;9.016;2023-04-19T06:28:00;96519.72;;;8.03;100.00
706;BME280;21234;48.690;9.016;2023-04-19T06:30:27;96524.53;;;8.01;100.00
706;BME280;21234;48.690;9.016;2023-04-19T06:32:55;96519.50;;;8.04;100.00
706;BME280;21234;48.690;9.016;2023-04-19T06:35:22;96522.44;;;8.03;99.76
706;BME280;21234;48.690;9.016;2023-04-19T06:37:49;96514.75;;;8.00;100.00
706;BME280;21234;48.690;9.016;2023-04-19T06:40:16;96518.59;;;8.11;100.00
706;BME280;21234;48.690;9.016;2023-04-19T06:42:43;96519.09;;;8.19;99.96
706;BME280;21234;48.690;9.016;2023-04-19T06:45:10;96526.53;;;8.24;98.87
706;BME280;21234;48.690;9.016;2023-04-19T06:47:37;96516.66;;;8.29;99.15
706;BME280;21234;48.690;9.016;2023-04-19T06:50:06;96513.13;;;8.29;98.70
706;BME280;21234;48.690;9.016;2023-04-19T06:52:33;96516.06;;;8.27;98.40
706;BME280;21234;48.690;9.016;2023-04-19T06:55:00;96511.19;;;8.36;98.40
706;BME280;21234;48.690;9.016;2023-04-19T06:57:26;96505.44;;;8.44;98.73
706;BME280;21234;48.690;9.016;2023-04-19T06:59:53;96515.09;;;8.52;97.60
706;BME280;21234;48.690;9.016;2023-04-19T07:02:20;96512.91;;;8.60;97.15
706;BME280;21234;48.690;9.016;2023-04-19T07:04:47;96517.41;;;8.66;96.70
706;BME280;21234;48.690;9.016;2023-04-19T07:07:15;96526.81;;;8.64;95.50
706;BME280;21234;48.690;9.016;2023-04-19T07:09:42;96516.94;;;8.69;95.94
706;BME280;21234;48.690;9.016;2023-04-19T07:12:08;96509.97;;;8.62;96.12
706;BME280;21234;48.690;9.016;2023-04-19T07:14:35;96511.06;;;8.72;94.77
706;BME280;21234;48.690;9.016;2023-04-19T07:17:03;96510.19;;;8.60;94.68
706;BME280;21234;48.690;9.016;2023-04-19T07:19:29;96508.81;;;8.81;95.02
706;BME280;21234;48.690;9.016;2023-04-19T07:21:56;96510.34;;;8.77;93.24
706;BME280;21234;48.690;9.016;2023-04-19T07:24:24;96510.59;;;8.87;93.16
706;BME280;21234;48.690;9.016;2023-04-19T07:26:52;96508.13;;;8.86;91.79
706;BME280;21234;48.690;9.016;2023-04-19T07:29:18;96509.75;;;8.87;92.51
706;BME280;21234;48.690;9.016;2023-04-19T07:31:45;96504.09;;;8.88;92.33
706;BME280;21234;48.690;9.016;2023-04-19T07:34:12;96504.47;;;8.92;91.57
706;BME280;21234;48.690;9.016;2023-04-19T07:36:38;96504.72;;;9.02;91.69
706;BME280;21234;48.690;9.016;2023-04-19T07:39:05;96499.78;;;8.99;91.08
706;BME280;21234;48.690;9.016;2023-04-19T07:41:33;96508.72;;;8.88;88.75
706;BME280;21234;48.690;9.016;2023-04-19T07:44:00;96507.78;;;8.94;89.45
706;BME280;21234;48.690;9.016;2023-04-19T07:46:26;96506.50;;;9.08;89.48
706;BME280;21234;48.690;9.016;2023-04-19T07:48:53;96495.44;;;9.09;88.65
706;BME280;21234;48.690;9.016;2023-04-19T07:51:20;96503.66;;;9.26;89.65
706;BME280;21234;48.690;9.016;2023-04-19T07:53:48;96505.41;;;9.44;88.69
706;BME280;21234;48.690;9.016;2023-04-19T07:56:15;96502.94;;;9.19;86.31
706;BME280;21234;48.690;9.016;2023-04-19T07:58:45;96498.09;;;9.44;87.63
706;BME280;21234;48.690;9.016;2023-04-19T08:01:12;96488.41;;;9.72;88.35
706;BME280;21234;48.690;9.016;2023-04-19T08:03:38;96488.00;;;9.80;87.13
706;BME280;21234;48.690;9.016;2023-04-19T08:06:06;96484.44;;;9.91;86.42
706;BME280;21234;48.690;9.016;2023-04-19T08:08:33;96493.50;;;9.68;83.82
706;BME280;21234;48.690;9.016;2023-04-19T08:11:00;96489.22;;;9.72;85.89
706;BME280;21234;48.690;9.016;2023-04-19T08:13:27;96481.72;;;9.91;85.93
706;BME280;21234;48.690;9.016;2023-04-19T08:15:55;96478.16;;;10.02;84.81
706;BME280;21234;48.690;9.016;2023-04-19T08:18:22;96474.66;;;10.19;84.78
706;BME280;21234;48.690;9.016;2023-04-19T08:20:49;96475.81;;;10.34;84.30
706;BME280;21234;48.690;9.016;2023-04-19T08:23:16;96469.47;;;10.29;84.20
706;BME280;21234;48.690;9.016;2023-04-19T08:25:43;96471.03;;;10.41;83.01
706;BME280;21234;48.690;9.016;2023-04-19T08:28:10;96472.69;;;10.42;79.98
706;BME280;21234;48.690;9.016;2023-04-19T08:30:37;96469.53;;;10.79;80.02
706;BME280;21234;48.690;9.016;2023-04-19T08:33:05;96465.13;;;11.28;78.89
706;BME280;21234;48.690;9.016;2023-04-19T08:35:33;96470.50;;;11.62;79.70
706;BME280;21234;48.690;9.016;2023-04-19T08:38:00;96472.91;;;11.58;77.25
706;BME280;21234;48.690;9.016;2023-04-19T08:40:29;96472.72;;;11.26;78.03
706;BME280;21234;48.690;9.016;2023-04-19T08:42:55;96476.97;;;11.00;78.41
706;BME280;21234;48.690;9.016;2023-04-19T08:45:24;96470.59;;;10.95;78.60
706;BME280;21234;48.690;9.016;2023-04-19T08:47:53;96471.09;;;10.92;77.80
706;BME280;21234;48.690;9.016;2023-04-19T08:50:21;96462.91;;;11.25;77.93
706;BME280;21234;48.690;9.016;2023-04-19T08:52:48;96462.88;;;11.42;73.98
706;BME280;21234;48.690;9.016;2023-04-19T08:55:16;96457.25;;;11.87;74.41
706;BME280;21234;48.690;9.016;2023-04-19T08:57:43;96458.13;;;11.93;71.57
706;BME280;21234;48.690;9.016;2023-04-19T09:00:10;96458.53;;;12.01;71.29
706;BME280;21234;48.690;9.016;2023-04-19T09:02:45;96454.50;;;12.31;70.69
706;BME280;21234;48.690;9.016;2023-04-19T09:05:14;96454.38;;;12.48;66.57
706;BME280;21234;48.690;9.016;2023-04-19T09:07:42;96445.41;;;12.52;67.93
706;BME280;21234;48.690;9.016;2023-04-19T09:10:10;96449.88;;;12.36;67.81
706;BME280;21234;48.690;9.016;2023-04-19T09:12:39;96445.78;;;11.85;68.71
706;BME280;21234;48.690;9.016;2023-04-19T09:15:07;96452.31;;;12.33;67.97
706;BME280;21234;48.690;9.016;2023-04-19T09:17:34;96454.06;;;12.44;65.14
706;BME280;21234;48.690;9.016;2023-04-19T09:20:01;96442.59;;;12.42;65.89
706;BME280;21234;48.690;9.016;2023-04-19T09:22:28;96446.09;;;12.64;66.04
706;BME280;21234;48.690;9.016;2023-04-19T09:24:57;96433.88;;;13.09;66.94
706;BME280;21234;48.690;9.016;2023-04-19T09:27:26;96431.22;;;12.82;65.35
706;BME280;21234;48.690;9.016;2023-04-19T09:29:53;96437.88;;;12.91;66.65
706;BME280;21234;48.690;9.016;2023-04-19T09:32:20;96433.28;;;12.65;66.04
706;BME280;21234;48.690;9.016;2023-04-19T09:34:52;96429.31;;;12.83;67.24
706;BME280;21234;48.690;9.016;2023-04-19T09:37:19;96426.38;;;12.89;66.63
706;BME280;21234;48.690;9.016;2023-04-19T09:39:47;96434.13;;;12.70;63.67
706;BME280;21234;48.690;9.016;2023-04-19T09:42:15;96428.28;;;12.57;66.47
706;BME280;21234;48.690;9.016;2023-04-19T09:44:54;96416.38;;;12.68;66.61
706;BME280;21234;48.690;9.016;2023-04-19T09:47:22;96428.06;;;12.95;66.42
706;BME280;21234;48.690;9.016;2023-04-19T09:50:03;96418.31;;;13.47;66.93
706;BME280;21234;48.690;9.016;2023-04-19T09:52:31;96411.69;;;13.32;65.62
706;BME280;21234;48.690;9.016;2023-04-19T09:54:59;96411.69;;;13.27;66.25
706;BME280;21234;48.690;9.016;2023-04-19T09:57:28;96409.28;;;13.41;63.95
706;BME280;21234;48.690;9.016;2023-04-19T09:59:55;96399.44;;;14.02;66.58
706;BME280;21234;48.690;9.016;2023-04-19T10:02:23;96400.84;;;14.15;63.83
706;BME280;21234;48.690;9.016;2023-04-19T10:04:50;96397.78;;;13.91;63.66
706;BME280;21234;48.690;9.016;2023-04-19T10:07:17;96392.88;;;13.93;61.72
706;BME280;21234;48.690;9.016;2023-04-19T10:09:45;96391.41;;;13.75;62.54
706;BME280;21234;48.690;9.016;2023-04-19T10:12:15;96392.69;;;13.53;64.03
706;BME280;21234;48.690;9.016;2023-04-19T10:14:43;96381.78;;;13.53;64.42
706;BME280;21234;48.690;9.016;2023-04-19T10:17:10;96391.34;;;13.55;63.03
706;BME280;21234;48.690;9.016;2023-04-19T10:19:39;96390.69;;;13.95;64.22
706;BME280;21234;48.690;9.016;2023-04-19T10:22:06;96382.47;;;14.00;62.64
706;BME280;21234;48.690;9.016;2023-04-19T10:24:34;96381.84;;;13.73;63.96
706;BME280;21234;48.690;9.016;2023-04-19T10:27:08;96383.03;;;13.35;66.02
706;BME280;21234;48.690;9.016;2023-04-19T10:29:57;96382.00;;;13.04;66.13
706;BME280;21234;48.690;9.016;2023-04-19T10:32:26;96383.00;;;12.88;67.83
706;BME280;21234;48.690;9.016;2023-04-19T10:34:52;96388.91;;;12.79;68.32
706;BME280;21234;48.690;9.016;2023-04-19T10:37:21;96383.84;;;12.56;69.34
706;BME280;21234;48.690;9.016;2023-04-19T10:39:48;96383.94;;;12.39;68.31
706;BME280;21234;48.690;9.016;2023-04-19T10:42:15;96388.16;;;12.52;70.15
706;BME280;21234;48.690;9.016;2023-04-19T10:47:57;96383.19;;;12.17;70.74
706;BME280;21234;48.690;9.016;2023-04-19T10:50:23;96378.88;;;11.94;70.58
706;BME280;21234;48.690;9.016;2023-04-19T10:52:52;96372.94;;;11.97;71.13
706;BME280;21234;48.690;9.016;2023-04-19T10:55:19;96382.56;;;12.10;71.28
706;BME280;21234;48.690;9.016;2023-04-19T10:58:02;96375.22;;;12.10;69.34
706;BME280;21234;48.690;9.016;2023-04-19T11:00:29;96371.06;;;12.03;67.54
706;BME280;21234;48.690;9.016;2023-04-19T11:02:59;96362.16;;;12.13;69.96
706;BME280;21234;48.690;9.016;2023-04-19T11:05:26;96357.44;;;12.30;70.28
706;BME280;21234;48.690;9.016;2023-04-19T11:07:52;96354.72;;;12.35;69.39
706;BME280;21234;48.690;9.016;2023-04-19T11:10:28;96353.50;;;12.48;70.15
706;BME280;21234;48.690;9.016;2023-04-19T11:12:55;96355.84;;;12.34;68.35
706;BME280;21234;48.690;9.016;2023-04-19T11:15:22;96343.91;;;12.13;68.77
706;BME280;21234;48.690;9.016;2023-04-19T11:17:49;96348.66;;;11.96;69.06
706;BME280;21234;48.690;9.016;2023-04-19T11:20:22;96343.75;;;11.76;70.79
706;BME280;21234;48.690;9.016;2023-04-19T11:22:49;96343.94;;;11.64;71.61
706;BME280;21234;48.690;9.016;2023-04-19T11:25:17;96338.75;;;11.63;71.73
706;BME280;21234;48.690;9.016;2023-04-19T11:27:46;96343.34;;;11.40;73.11
706;BME280;21234;48.690;9.016;2023-04-19T11:30:14;96339.25;;;11.16;72.61
706;BME280;21234;48.690;9.016;2023-04-19T11:32:45;96334.19;;;11.03;73.64
706;BME280;21234;48.690;9.016;2023-04-19T11:35:12;96329.81;;;11.02;74.43
706;BME280;21234;48.690;9.016;2023-04-19T11:37:40;96335.75;;;10.99;75.62
706;BME280;21234;48.690;9.016;2023-04-19T11:40:08;96335.59;;;10.89;74.76
706;BME280;21234;48.690;9.016;2023-04-19T11:42:35;96330.81;;;10.96;75.26
706;BME280;21234;48.690;9.016;2023-04-19T11:45:03;96329.16;;;10.95;75.66
706;BME280;21234;48.690;9.016;2023-04-19T11:47:31;96322.47;;;11.02;74.49
706;BME280;21234;48.690;9.016;2023-04-19T11:50:29;96322.09;;;10.94;75.28
706;BME280;21234;48.690;9.016;2023-04-19T11:52:58;96325.94;;;10.98;74.79
706;BME280;21234;48.690;9.016;2023-04-19T11:55:25;96320.00;;;11.01;74.77
706;BME280;21234;48.690;9.016;2023-04-19T11:57:51;96326.44;;;10.95;75.28
706;BME280;21234;48.690;9.016;2023-04-19T12:00:26;96321.19;;;10.88;76.64
706;BME280;21234;48.690;9.016;2023-04-19T12:02:53;96313.69;;;10.78;77.42
706;BME280;21234;48.690;9.016;2023-04-19T12:05:22;96307.44;;;10.78;76.95
706;BME280;21234;48.690;9.016;2023-04-19T12:08:00;96319.34;;;10.72;77.95
706;BME280;21234;48.690;9.016;2023-04-19T12:10:28;96315.06;;;10.59;78.46
706;BME280;21234;48.690;9.016;2023-04-19T12:12:55;96317.03;;;10.47;79.51
706;BME280;21234;48.690;9.016;2023-04-19T12:15:22;96315.81;;;10.38;80.11
706;BME280;21234;48.690;9.016;2023-04-19T12:17:56;96316.56;;;10.33;80.44
706;BME280;21234;48.690;9.016;2023-04-19T12:20:30;96311.22;;;10.38;81.14
706;BME280;21234;48.690;9.016;2023-04-19T12:22:57;96317.56;;;10.27;82.18
706;BME280;21234;48.690;9.016;2023-04-19T12:25:28;96316.28;;;10.18;83.10
706;BME280;21234;48.690;9.016;2023-04-19T12:27:55;96319.31;;;10.05;84.76
706;BME280;21234;48.690;9.016;2023-04-19T12:30:23;96315.69;;;9.99;85.79
706;BME280;21234;48.690;9.016;2023-04-19T12:32:50;96312.31;;;9.92;87.56
706;BME280;21234;48.690;9.016;2023-04-19T12:35:19;96314.25;;;9.80;88.04
706;BME280;21234;48.690;9.016;2023-04-19T12:37:46;96312.84;;;9.77;87.92
706;BME280;21234;48.690;9.016;2023-04-19T12:40:13;96311.75;;;9.62;89.99
706;BME280;21234;48.690;9.016;2023-04-19T12:42:42;96315.97;;;9.69;91.29
706;BME280;21234;48.690;9.016;2023-04-19T12:45:09;96315.91;;;9.53;92.05
706;BME280;21234;48.690;9.016;2023-04-19T12:47:36;96302.84;;;9.50;94.19
706;BME280;21234;48.690;9.016;2023-04-19T12:50:04;96311.78;;;9.50;96.84
706;BME280;21234;48.690;9.016;2023-04-19T12:52:31;96303.56;;;9.45;98.54
706;BME280;21234;48.690;9.016;2023-04-19T12:54:57;96305.97;;;9.41;99.78
706;BME280;21234;48.690;9.016;2023-04-19T12:57:24;96299.28;;;9.21;100.00
706;BME280;21234;48.690;9.016;2023-04-19T12:59:52;96300.81;;;9.17;100.00
706;BME280;21234;48.690;9.016;2023-04-19T13:02:19;96303.47;;;9.00;100.00
706;BME280;21234;48.690;9.016;2023-04-19T13:04:46;96300.78;;;8.88;100.00
706;BME280;21234;48.690;9.016;2023-04-19T13:07:12;96305.03;;;8.84;100.00
706;BME280;21234;48.690;9.016;2023-04-19T13:09:39;96299.41;;;8.74;100.00
706;BME280;21234;48.690;9.016;2023-04-19T13:12:06;96300.25;;;8.74;100.00
706;BME280;21234;48.690;9.016;2023-04-19T13:14:33;96302.19;;;8.79;100.00
706;BME280;21234;48.690;9.016;2023-04-19T13:17:01;96301.78;;;8.59;100.00
706;BME280;21234;48.690;9.016;2023-04-19T13:19:28;96292.34;;;8.61;100.00
706;BME280;21234;48.690;9.016;2023-04-19T13:21:55;96290.94;;;8.59;100.00
706;BME280;21234;48.690;9.016;2023-04-19T13:24:22;96285.88;;;8.51;100.00
706;BME280;21234;48.690;9.016;2023-04-19T13:26:48;96283.41;;;8.37;100.00
706;BME280;21234;48.690;9.016;2023-04-19T13:29:15;96285.63;;;8.29;100.00